Buoy 63566

sailwx.info

Track history (hours):
 
Tides and Currents Weather Stations Pressure Air Temp Water Temp Dewpoint Dewpoint Depression Visibility Wind Speed Wind Dir Waves Ship Positions

Drifting buoy 63566

Last reported at 2018-Apr-27 04:00 UTC. Time now 2018-Apr-27 05:06 UTC.
Position N 72°58' E 022°08'.

Water temperature 4.5 ° C

Date/timePositionNaut miles runAvg speedWind from/ knotsBaromVisibWave heightAir tempDewpointWater temp
2018-Apr-27 04:00N 72°58' E 022°08'1 0.6 4.5
2018-Apr-27 03:00N 72°58' E 022°09'0 0.0 4.5
2018-Apr-27 02:00N 72°58' E 022°09'1 0.7 4.6
2018-Apr-27 01:00N 72°58' E 022°07'0 0.0 4.6
2018-Apr-27 00:00N 72°58' E 022°07'1 1.2 4.6
2018-Apr-26 23:00N 72°59' E 022°07'0 0.0 4.5
2018-Apr-26 22:00N 72°59' E 022°07'2 1.8 4.5
2018-Apr-26 21:00N 72°58' E 022°02'1 0.9 4.5
2018-Apr-26 20:00N 72°58' E 022°05'0 0.0 4.5
2018-Apr-26 19:00N 72°58' E 022°05'2 2.2 4.5
2018-Apr-26 18:00N 72°59' E 022°13'1 0.6 4.5
2018-Apr-26 16:00N 72°58' E 022°14'1 0.6 4.5
2018-Apr-26 15:00N 72°58' E 022°14'0 0.0 4.5
2018-Apr-26 14:00N 72°58' E 022°14'0 0.2 4.5
2018-Apr-26 13:00N 72°58' E 022°15'0 0.4 4.6
2018-Apr-26 12:00N 72°58' E 022°16'1 1.3 4.7
2018-Apr-26 11:00N 72°57' E 022°17'0 0.4 4.8
2018-Apr-26 10:00N 72°57' E 022°19'1 0.8 4.8
2018-Apr-26 09:00N 72°58' E 022°20'1 0.7 4.8
2018-Apr-26 08:00N 72°57' E 022°22'1 0.9 4.8
2018-Apr-26 07:00N 72°58' E 022°24'0 0.4 4.8
2018-Apr-26 06:00N 72°58' E 022°23'2 1.6 4.6
2018-Apr-26 05:00N 72°58' E 022°28'2 1.6 4.5
2018-Apr-26 04:00N 72°59' E 022°32'2 1.9 4.4
2018-Apr-26 03:00N 72°59' E 022°38'1 1.5 4.5
2018-Apr-26 02:00N 73°00' E 022°41'0 0.0 4.5
2018-Apr-26 01:00N 73°00' E 022°41'2 1.5 4.5
2018-Apr-26 00:00N 73°01' E 022°46'0 0.0 4.5
2018-Apr-25 23:00N 73°01' E 022°46'2 1.6 4.4
2018-Apr-25 22:00N 72°59' E 022°43'3 2.5 4.4
2018-Apr-25 21:00N 73°01' E 022°49'1 1.3 4.4
2018-Apr-25 20:00N 73°00' E 022°50'1 1.4 4.4
2018-Apr-25 19:00N 73°01' E 022°54'1 0.7 4.4
2018-Apr-25 18:00N 73°01' E 022°56'2 1.9 4.4
2018-Apr-25 17:00N 73°01' E 023°03'2 1.7 4.5
2018-Apr-25 16:00N 73°01' E 023°08'1 0.9 4.5
2018-Apr-25 15:00N 73°02' E 023°11'1 1.1 4.5
2018-Apr-25 14:00N 73°02' E 023°14'2 2.2 4.4
2018-Apr-25 13:00N 73°02' E 023°22'1 0.6 4.4
2018-Apr-25 12:00N 73°03' E 023°21'1 0.9 4.5
2018-Apr-25 11:00N 73°04' E 023°23'1 0.7 4.4
2018-Apr-25 10:00N 73°04' E 023°26'1 1.2 4.5
2018-Apr-25 09:00N 73°05' E 023°26'2 1.8 4.3
2018-Apr-25 08:00N 73°05' E 023°32'1 0.5 4.3
2018-Apr-25 07:00N 73°05' E 023°34'1 1.2 4.3
2018-Apr-25 06:00N 73°05' E 023°38'1 0.7 4.5
2018-Apr-25 05:00N 73°06' E 023°39'2 1.9 4.6
2018-Apr-25 04:00N 73°06' E 023°46'4 2.0 4.6
2018-Apr-25 02:00N 73°08' E 023°58'0 0.0 4.5
2018-Apr-25 01:00N 73°08' E 023°58'2 2.1 4.6
2018-Apr-25 00:00N 73°10' E 024°01'0 0.0 4.5
2018-Apr-24 23:00N 73°10' E 024°01'1 0.8 4.4
2018-Apr-24 22:00N 73°09' E 024°03'1 1.1 4.4
2018-Apr-24 21:00N 73°08' E 024°06'1 1.2 4.5
2018-Apr-24 20:00N 73°07' E 024°05'1 0.6 4.6
2018-Apr-24 19:00N 73°08' E 024°06'0 0.2 4.6
2018-Apr-24 18:00N 73°08' E 024°07'1 0.8 4.6
2018-Apr-24 17:00N 73°07' E 024°08'0 0.2 4.6
2018-Apr-24 16:00N 73°07' E 024°09'2 2.0 4.6
2018-Apr-24 15:00N 73°07' E 024°16'1 0.9 4.7
2018-Apr-24 14:00N 73°06' E 024°13'0 0.0 4.7
2018-Apr-24 13:00N 73°06' E 024°13'0 0.2 4.8
2018-Apr-24 12:00N 73°06' E 024°14'1 0.7 4.8
2018-Apr-24 11:00N 73°05' E 024°15'0 0.2 4.6
2018-Apr-24 10:00N 73°05' E 024°14'1 0.7 4.6
2018-Apr-24 09:00N 73°05' E 024°16'1 0.8 4.5
2018-Apr-24 08:00N 73°05' E 024°14'0 0.2 4.5
2018-Apr-24 07:00N 73°05' E 024°13'0 0.3 4.5
2018-Apr-24 06:00N 73°05' E 024°14'1 0.7 4.5
2018-Apr-24 05:00N 73°05' E 024°13'1 1.2 4.5
2018-Apr-24 04:00N 73°05' E 024°17'0 0.0 4.4
2018-Apr-24 03:00N 73°05' E 024°17'2 1.5 4.4
2018-Apr-24 02:00N 73°06' E 024°22'1 1.5 4.4
2018-Apr-24 01:00N 73°05' E 024°19'1 1.1 4.4
2018-Apr-24 00:00N 73°05' E 024°22'0 0.0 4.4
2018-Apr-23 23:00N 73°05' E 024°22'0 0.0 4.4
2018-Apr-23 22:00N 73°05' E 024°22'1 1.2 4.4
2018-Apr-23 21:00N 73°04' E 024°20'0 0.0 4.4
2018-Apr-23 20:00N 73°04' E 024°20'1 0.7 4.4
2018-Apr-23 19:00N 73°04' E 024°18'0 0.2 4.4
2018-Apr-23 18:00N 73°04' E 024°19'0 0.3 4.5
2018-Apr-23 17:00N 73°04' E 024°17'1 0.7 4.6
2018-Apr-23 16:00N 73°04' E 024°16'0 0.0 4.6
2018-Apr-23 15:00N 73°04' E 024°16'1 0.3 4.6
2018-Apr-23 13:00N 73°03' E 024°17'1 0.9 4.5
2018-Apr-23 12:00N 73°03' E 024°20'1 1.2 4.5
2018-Apr-23 11:00N 73°03' E 024°16'0 0.0 4.5
2018-Apr-23 10:00N 73°03' E 024°16'1 0.6 4.5
2018-Apr-23 09:00N 73°02' E 024°16'1 0.7 4.5
2018-Apr-23 08:00N 73°02' E 024°14'1 0.7 4.5
2018-Apr-23 07:00N 73°02' E 024°11'0 0.2 4.5
2018-Apr-23 06:00N 73°02' E 024°11'2 1.6 4.5
2018-Apr-23 05:00N 73°02' E 024°05'1 0.6 4.5
2018-Apr-23 04:00N 73°03' E 024°06'0 0.3 4.5
2018-Apr-23 03:00N 73°03' E 024°05'1 1.1 4.5
2018-Apr-23 02:00N 73°04' E 024°08'2 1.8 4.5
2018-Apr-23 01:00N 73°03' E 024°02'1 1.3 4.6
2018-Apr-23 00:00N 73°04' E 024°00'0 0.0 4.6
2018-Apr-22 23:00N 73°04' E 024°00'1 1.3 4.7
2018-Apr-22 22:00N 73°03' E 023°58'2 1.6 4.6
2018-Apr-22 21:00N 73°03' E 023°53'1 0.9 4.6
2018-Apr-22 20:00N 73°04' E 023°55'1 1.2 4.6
2018-Apr-22 19:00N 73°03' E 023°52'1 0.7 4.6
2018-Apr-22 18:00N 73°03' E 023°54'1 0.9 4.6
2018-Apr-22 17:00N 73°03' E 023°51'1 0.6 4.6
2018-Apr-22 16:00N 73°02' E 023°52'1 0.9 4.6
2018-Apr-22 15:00N 73°03' E 023°49'1 0.9 4.6
2018-Apr-22 14:00N 73°04' E 023°52'1 0.6 4.6
2018-Apr-22 13:00N 73°03' E 023°52'0 0.2 4.6
2018-Apr-22 12:00N 73°03' E 023°53'0 0.0 4.6
2018-Apr-22 11:00N 73°03' E 023°53'1 0.7 4.6
2018-Apr-22 10:00N 73°03' E 023°55'0 0.3 4.6
2018-Apr-22 09:00N 73°03' E 023°56'0 0.2 4.6
2018-Apr-22 08:00N 73°03' E 023°56'1 0.7 4.6
2018-Apr-22 07:00N 73°02' E 023°55'0 0.0 4.6
2018-Apr-22 06:00N 73°02' E 023°55'1 0.4 4.6
2018-Apr-22 04:00N 73°03' E 023°53'3 1.4 4.6
2018-Apr-22 02:00N 73°01' E 023°58'1 1.1 4.5
2018-Apr-22 01:00N 73°01' E 024°01'1 1.1 4.6
2018-Apr-22 00:00N 73°01' E 024°04'1 0.5 4.6
2018-Apr-21 22:00N 73°01' E 024°07'1 0.9 4.6
2018-Apr-21 21:00N 73°01' E 024°09'0 0.2 4.6
2018-Apr-21 20:00N 73°01' E 024°08'1 0.7 4.5
2018-Apr-21 19:00N 73°01' E 024°11'1 0.9 4.5
2018-Apr-21 18:00N 73°01' E 024°14'2 1.7 4.5
2018-Apr-21 17:00N 72°59' E 024°10'1 0.7 4.5
2018-Apr-21 16:00N 72°59' E 024°11'1 0.3 4.5
2018-Apr-21 14:00N 72°58' E 024°12'0 0.4 4.6
2018-Apr-21 13:00N 72°58' E 024°13'1 1.4 4.6
2018-Apr-21 12:00N 72°58' E 024°17'1 0.7 4.5
2018-Apr-21 11:00N 72°58' E 024°19'2 1.6 4.5
2018-Apr-21 10:00N 72°57' E 024°22'1 0.7 4.5
2018-Apr-21 09:00N 72°58' E 024°23'1 0.9 4.5
2018-Apr-21 08:00N 72°57' E 024°26'1 0.4 4.5
2018-Apr-21 06:00N 72°57' E 024°28'1 0.6 4.5
2018-Apr-21 04:00N 72°56' E 024°32'1 1.2 4.5
2018-Apr-21 03:00N 72°56' E 024°35'0 0.0 4.6
2018-Apr-21 02:00N 72°56' E 024°35'3 2.8 4.5
2018-Apr-21 01:00N 72°56' E 024°45'0 0.0 4.5
2018-Apr-21 00:00N 72°56' E 024°45'2 1.7 4.4
2018-Apr-20 23:00N 72°55' E 024°50'0 0.0 4.4
2018-Apr-20 22:00N 72°55' E 024°50'2 1.7 4.4
2018-Apr-20 21:00N 72°54' E 024°55'2 1.9 4.4
2018-Apr-20 20:00N 72°52' E 024°57'1 1.4 4.4
2018-Apr-20 19:00N 72°53' E 024°59'1 1.3 4.4
2018-Apr-20 18:00N 72°52' E 025°01'2 2.3 4.5
2018-Apr-20 17:00N 72°52' E 024°53'2 2.4 4.5
2018-Apr-20 16:00N 72°52' E 025°01'1 1.4 4.5
2018-Apr-20 15:00N 72°51' E 025°05'1 1.5 4.3
2018-Apr-20 14:00N 72°50' E 025°02'1 1.4 4.5
2018-Apr-20 13:00N 72°51' E 025°04'2 1.8 4.6
2018-Apr-20 12:00N 72°49' E 025°04'1 0.7 4.6
2018-Apr-20 11:00N 72°49' E 025°05'0 0.4 4.6
2018-Apr-20 10:00N 72°49' E 025°07'0 0.2 4.7
2018-Apr-20 09:00N 72°49' E 025°07'0 0.0 4.6
2018-Apr-20 08:00N 72°49' E 025°07'1 0.6 4.6
2018-Apr-20 07:00N 72°49' E 025°08'1 0.8 4.6
2018-Apr-20 06:00N 72°49' E 025°06'1 0.7 4.5
2018-Apr-20 05:00N 72°49' E 025°04'1 1.3 4.5
2018-Apr-20 04:00N 72°47' E 025°02'1 1.4 4.6
2018-Apr-20 03:00N 72°47' E 024°58'0 0.0 4.6
2018-Apr-20 02:00N 72°47' E 024°58'0 0.2 4.6
2018-Apr-20 01:00N 72°47' E 024°57'0 0.0 4.6
2018-Apr-20 00:00N 72°47' E 024°57'1 0.8 4.6
2018-Apr-19 23:00N 72°46' E 024°55'1 0.6 4.6
2018-Apr-19 22:00N 72°46' E 024°55'0 0.4 4.6
2018-Apr-19 21:00N 72°46' E 024°56'2 1.6 4.6
2018-Apr-19 20:00N 72°44' E 024°52'2 1.8 4.6
2018-Apr-19 19:00N 72°46' E 024°51'1 1.2 4.6
2018-Apr-19 18:00N 72°45' E 024°51'1 1.1 4.7
2018-Apr-19 17:00N 72°46' E 024°48'1 0.9 4.7
2018-Apr-19 16:00N 72°45' E 024°46'0 0.0 4.7
2018-Apr-19 15:00N 72°45' E 024°46'2 1.7 4.7
2018-Apr-19 14:00N 72°44' E 024°40'1 0.8 4.7
2018-Apr-19 13:00N 72°44' E 024°38'1 0.5 4.7
2018-Apr-19 12:00N 72°44' E 024°40'1 1.2 4.7
2018-Apr-19 11:00N 72°43' E 024°40'1 0.3 4.6
2018-Apr-19 09:00N 72°43' E 024°38'0 0.2 4.5
2018-Apr-19 07:00N 72°43' E 024°37'1 1.1 4.5
2018-Apr-19 06:00N 72°43' E 024°34'1 0.7 4.5
2018-Apr-19 05:00N 72°43' E 024°33'1 1.4 4.5
2018-Apr-19 04:00N 72°43' E 024°29'1 0.5 4.5
2018-Apr-19 02:00N 72°43' E 024°26'1 0.9 4.6
2018-Apr-19 01:00N 72°44' E 024°29'2 1.8 4.6
2018-Apr-19 00:00N 72°46' E 024°29'0 0.0 4.6
2018-Apr-18 23:00N 72°46' E 024°29'0 0.2 4.7
2018-Apr-18 22:00N 72°46' E 024°30'0 0.2 4.7
2018-Apr-18 21:00N 72°46' E 024°31'0 0.0 4.7
2018-Apr-18 20:00N 72°46' E 024°31'1 0.7 4.6
2018-Apr-18 19:00N 72°46' E 024°28'1 1.2 4.6
2018-Apr-18 18:00N 72°47' E 024°29'0 0.0 4.7
2018-Apr-18 17:00N 72°47' E 024°29'0 0.0 4.7
2018-Apr-18 16:00N 72°47' E 024°29'1 1.1 4.6
2018-Apr-18 15:00N 72°47' E 024°26'1 0.7 4.6
2018-Apr-18 14:00N 72°48' E 024°25'0 0.0 4.6
2018-Apr-18 13:00N 72°48' E 024°25'1 1.2 4.6
2018-Apr-18 12:00N 72°49' E 024°25'1 1.1 4.7
2018-Apr-18 11:00N 72°50' E 024°28'1 0.6 4.7
2018-Apr-18 10:00N 72°49' E 024°28'2 2.2 4.7
2018-Apr-18 09:00N 72°51' E 024°32'1 0.6 4.8
2018-Apr-18 08:00N 72°52' E 024°32'1 1.4 4.7
2018-Apr-18 07:00N 72°52' E 024°37'2 1.9 4.7
2018-Apr-18 06:00N 72°53' E 024°40'1 0.4 4.7
2018-Apr-18 04:00N 72°53' E 024°42'1 0.4 4.6
2018-Apr-18 02:00N 72°54' E 024°44'1 1.5 4.7
2018-Apr-18 01:00N 72°55' E 024°47'1 1.2 4.7
2018-Apr-18 00:00N 72°55' E 024°43'1 1.2 4.6
2018-Apr-17 23:00N 72°56' E 024°43'0 0.0 4.6
2018-Apr-17 22:00N 72°56' E 024°43'1 1.3 4.6
2018-Apr-17 21:00N 72°55' E 024°41'1 0.6 4.6
2018-Apr-17 20:00N 72°56' E 024°41'2 1.6 4.6
2018-Apr-17 19:00N 72°57' E 024°44'2 2.2 4.7
2018-Apr-17 18:00N 72°56' E 024°37'1 1.2 4.7
2018-Apr-17 17:00N 72°57' E 024°34'1 0.7 4.7
2018-Apr-17 16:00N 72°56' E 024°35'2 2.1 4.8
2018-Apr-17 15:00N 72°56' E 024°28'1 1.2 4.7
2018-Apr-17 14:00N 72°56' E 024°32'3 2.5 4.6
2018-Apr-17 13:00N 72°55' E 024°26'1 0.7 4.5
2018-Apr-17 12:00N 72°55' E 024°25'1 0.7 4.5
2018-Apr-17 11:00N 72°55' E 024°22'1 0.7 4.4
2018-Apr-17 10:00N 72°55' E 024°23'1 0.5 4.4
2018-Apr-17 09:00N 72°55' E 024°22'0 0.0 4.3
2018-Apr-17 08:00N 72°55' E 024°22'1 1.3 4.3
2018-Apr-17 07:00N 72°53' E 024°23'2 2.3 4.3
2018-Apr-17 06:00N 72°55' E 024°18'1 1.2 4.3
2018-Apr-17 05:00N 72°56' E 024°18'1 1.4 4.3
2018-Apr-17 04:00N 72°56' E 024°13'   4.3
Track history (hours):
 
Tides and Currents Weather Stations Pressure Air Temp Water Temp Dewpoint Dewpoint Depression Visibility Wind Speed Wind Dir Waves Ship Positions

Drifting buoy 63566

Last reported at 2018-Apr-27 04:00 UTC. Time now 2018-Apr-27 05:06 UTC.
Position N 72°58' E 022°08'.

Water temperature 4.5 ° C

Date/timePositionNaut miles runAvg speedWind from/ knotsBaromVisibWave heightAir tempDewpointWater temp
2018-Apr-27 04:00N 72°58' E 022°08'1 0.6 4.5
2018-Apr-27 03:00N 72°58' E 022°09'0 0.0 4.5
2018-Apr-27 02:00N 72°58' E 022°09'1 0.7 4.6
2018-Apr-27 01:00N 72°58' E 022°07'0 0.0 4.6
2018-Apr-27 00:00N 72°58' E 022°07'1 1.2 4.6
2018-Apr-26 23:00N 72°59' E 022°07'0 0.0 4.5
2018-Apr-26 22:00N 72°59' E 022°07'2 1.8 4.5
2018-Apr-26 21:00N 72°58' E 022°02'1 0.9 4.5
2018-Apr-26 20:00N 72°58' E 022°05'0 0.0 4.5
2018-Apr-26 19:00N 72°58' E 022°05'2 2.2 4.5
2018-Apr-26 18:00N 72°59' E 022°13'1 0.6 4.5
2018-Apr-26 16:00N 72°58' E 022°14'1 0.6 4.5
2018-Apr-26 15:00N 72°58' E 022°14'0 0.0 4.5
2018-Apr-26 14:00N 72°58' E 022°14'0 0.2 4.5
2018-Apr-26 13:00N 72°58' E 022°15'0 0.4 4.6
2018-Apr-26 12:00N 72°58' E 022°16'1 1.3 4.7
2018-Apr-26 11:00N 72°57' E 022°17'0 0.4 4.8
2018-Apr-26 10:00N 72°57' E 022°19'1 0.8 4.8
2018-Apr-26 09:00N 72°58' E 022°20'1 0.7 4.8
2018-Apr-26 08:00N 72°57' E 022°22'1 0.9 4.8
2018-Apr-26 07:00N 72°58' E 022°24'0 0.4 4.8
2018-Apr-26 06:00N 72°58' E 022°23'2 1.6 4.6
2018-Apr-26 05:00N 72°58' E 022°28'2 1.6 4.5
2018-Apr-26 04:00N 72°59' E 022°32'2 1.9 4.4
2018-Apr-26 03:00N 72°59' E 022°38'1 1.5 4.5
2018-Apr-26 02:00N 73°00' E 022°41'0 0.0 4.5
2018-Apr-26 01:00N 73°00' E 022°41'2 1.5 4.5
2018-Apr-26 00:00N 73°01' E 022°46'0 0.0 4.5
2018-Apr-25 23:00N 73°01' E 022°46'2 1.6 4.4
2018-Apr-25 22:00N 72°59' E 022°43'3 2.5 4.4
2018-Apr-25 21:00N 73°01' E 022°49'1 1.3 4.4
2018-Apr-25 20:00N 73°00' E 022°50'1 1.4 4.4
2018-Apr-25 19:00N 73°01' E 022°54'1 0.7 4.4
2018-Apr-25 18:00N 73°01' E 022°56'2 1.9 4.4
2018-Apr-25 17:00N 73°01' E 023°03'2 1.7 4.5
2018-Apr-25 16:00N 73°01' E 023°08'1 0.9 4.5
2018-Apr-25 15:00N 73°02' E 023°11'1 1.1 4.5
2018-Apr-25 14:00N 73°02' E 023°14'2 2.2 4.4
2018-Apr-25 13:00N 73°02' E 023°22'1 0.6 4.4
2018-Apr-25 12:00N 73°03' E 023°21'1 0.9 4.5
2018-Apr-25 11:00N 73°04' E 023°23'1 0.7 4.4
2018-Apr-25 10:00N 73°04' E 023°26'1 1.2 4.5
2018-Apr-25 09:00N 73°05' E 023°26'2 1.8 4.3
2018-Apr-25 08:00N 73°05' E 023°32'1 0.5 4.3
2018-Apr-25 07:00N 73°05' E 023°34'1 1.2 4.3
2018-Apr-25 06:00N 73°05' E 023°38'1 0.7 4.5
2018-Apr-25 05:00N 73°06' E 023°39'2 1.9 4.6
2018-Apr-25 04:00N 73°06' E 023°46'4 2.0 4.6
2018-Apr-25 02:00N 73°08' E 023°58'0 0.0 4.5
2018-Apr-25 01:00N 73°08' E 023°58'2 2.1 4.6
2018-Apr-25 00:00N 73°10' E 024°01'0 0.0 4.5
2018-Apr-24 23:00N 73°10' E 024°01'1 0.8 4.4
2018-Apr-24 22:00N 73°09' E 024°03'1 1.1 4.4
2018-Apr-24 21:00N 73°08' E 024°06'1 1.2 4.5
2018-Apr-24 20:00N 73°07' E 024°05'1 0.6 4.6
2018-Apr-24 19:00N 73°08' E 024°06'0 0.2 4.6
2018-Apr-24 18:00N 73°08' E 024°07'1 0.8 4.6
2018-Apr-24 17:00N 73°07' E 024°08'0 0.2 4.6
2018-Apr-24 16:00N 73°07' E 024°09'2 2.0 4.6
2018-Apr-24 15:00N 73°07' E 024°16'1 0.9 4.7
2018-Apr-24 14:00N 73°06' E 024°13'0 0.0 4.7
2018-Apr-24 13:00N 73°06' E 024°13'0 0.2 4.8
2018-Apr-24 12:00N 73°06' E 024°14'1 0.7 4.8
2018-Apr-24 11:00N 73°05' E 024°15'0 0.2 4.6
2018-Apr-24 10:00N 73°05' E 024°14'1 0.7 4.6
2018-Apr-24 09:00N 73°05' E 024°16'1 0.8 4.5
2018-Apr-24 08:00N 73°05' E 024°14'0 0.2 4.5
2018-Apr-24 07:00N 73°05' E 024°13'0 0.3 4.5
2018-Apr-24 06:00N 73°05' E 024°14'1 0.7 4.5
2018-Apr-24 05:00N 73°05' E 024°13'1 1.2 4.5
2018-Apr-24 04:00N 73°05' E 024°17'0 0.0 4.4
2018-Apr-24 03:00N 73°05' E 024°17'2 1.5 4.4
2018-Apr-24 02:00N 73°06' E 024°22'1 1.5 4.4
2018-Apr-24 01:00N 73°05' E 024°19'1 1.1 4.4
2018-Apr-24 00:00N 73°05' E 024°22'0 0.0 4.4
2018-Apr-23 23:00N 73°05' E 024°22'0 0.0 4.4
2018-Apr-23 22:00N 73°05' E 024°22'1 1.2 4.4
2018-Apr-23 21:00N 73°04' E 024°20'0 0.0 4.4
2018-Apr-23 20:00N 73°04' E 024°20'1 0.7 4.4
2018-Apr-23 19:00N 73°04' E 024°18'0 0.2 4.4
2018-Apr-23 18:00N 73°04' E 024°19'0 0.3 4.5
2018-Apr-23 17:00N 73°04' E 024°17'1 0.7 4.6
2018-Apr-23 16:00N 73°04' E 024°16'0 0.0 4.6
2018-Apr-23 15:00N 73°04' E 024°16'1 0.3 4.6
2018-Apr-23 13:00N 73°03' E 024°17'1 0.9 4.5
2018-Apr-23 12:00N 73°03' E 024°20'1 1.2 4.5
2018-Apr-23 11:00N 73°03' E 024°16'0 0.0 4.5
2018-Apr-23 10:00N 73°03' E 024°16'1 0.6 4.5
2018-Apr-23 09:00N 73°02' E 024°16'1 0.7 4.5
2018-Apr-23 08:00N 73°02' E 024°14'1 0.7 4.5
2018-Apr-23 07:00N 73°02' E 024°11'0 0.2 4.5
2018-Apr-23 06:00N 73°02' E 024°11'2 1.6 4.5
2018-Apr-23 05:00N 73°02' E 024°05'1 0.6 4.5
2018-Apr-23 04:00N 73°03' E 024°06'0 0.3 4.5
2018-Apr-23 03:00N 73°03' E 024°05'1 1.1 4.5
2018-Apr-23 02:00N 73°04' E 024°08'2 1.8 4.5
2018-Apr-23 01:00N 73°03' E 024°02'1 1.3 4.6
2018-Apr-23 00:00N 73°04' E 024°00'0 0.0 4.6
2018-Apr-22 23:00N 73°04' E 024°00'1 1.3 4.7
2018-Apr-22 22:00N 73°03' E 023°58'2 1.6 4.6
2018-Apr-22 21:00N 73°03' E 023°53'1 0.9 4.6
2018-Apr-22 20:00N 73°04' E 023°55'1 1.2 4.6
2018-Apr-22 19:00N 73°03' E 023°52'1 0.7 4.6
2018-Apr-22 18:00N 73°03' E 023°54'1 0.9 4.6
2018-Apr-22 17:00N 73°03' E 023°51'1 0.6 4.6
2018-Apr-22 16:00N 73°02' E 023°52'1 0.9 4.6
2018-Apr-22 15:00N 73°03' E 023°49'1 0.9 4.6
2018-Apr-22 14:00N 73°04' E 023°52'1 0.6 4.6
2018-Apr-22 13:00N 73°03' E 023°52'0 0.2 4.6
2018-Apr-22 12:00N 73°03' E 023°53'0 0.0 4.6
2018-Apr-22 11:00N 73°03' E 023°53'1 0.7 4.6
2018-Apr-22 10:00N 73°03' E 023°55'0 0.3 4.6
2018-Apr-22 09:00N 73°03' E 023°56'0 0.2 4.6
2018-Apr-22 08:00N 73°03' E 023°56'1 0.7 4.6
2018-Apr-22 07:00N 73°02' E 023°55'0 0.0 4.6
2018-Apr-22 06:00N 73°02' E 023°55'1 0.4 4.6
2018-Apr-22 04:00N 73°03' E 023°53'3 1.4 4.6
2018-Apr-22 02:00N 73°01' E 023°58'1 1.1 4.5
2018-Apr-22 01:00N 73°01' E 024°01'1 1.1 4.6
2018-Apr-22 00:00N 73°01' E 024°04'1 0.5 4.6
2018-Apr-21 22:00N 73°01' E 024°07'1 0.9 4.6
2018-Apr-21 21:00N 73°01' E 024°09'0 0.2 4.6
2018-Apr-21 20:00N 73°01' E 024°08'1 0.7 4.5
2018-Apr-21 19:00N 73°01' E 024°11'1 0.9 4.5
2018-Apr-21 18:00N 73°01' E 024°14'2 1.7 4.5
2018-Apr-21 17:00N 72°59' E 024°10'1 0.7 4.5
2018-Apr-21 16:00N 72°59' E 024°11'1 0.3 4.5
2018-Apr-21 14:00N 72°58' E 024°12'0 0.4 4.6
2018-Apr-21 13:00N 72°58' E 024°13'1 1.4 4.6
2018-Apr-21 12:00N 72°58' E 024°17'1 0.7 4.5
2018-Apr-21 11:00N 72°58' E 024°19'2 1.6 4.5
2018-Apr-21 10:00N 72°57' E 024°22'1 0.7 4.5
2018-Apr-21 09:00N 72°58' E 024°23'1 0.9 4.5
2018-Apr-21 08:00N 72°57' E 024°26'1 0.4 4.5
2018-Apr-21 06:00N 72°57' E 024°28'1 0.6 4.5
2018-Apr-21 04:00N 72°56' E 024°32'1 1.2 4.5
2018-Apr-21 03:00N 72°56' E 024°35'0 0.0 4.6
2018-Apr-21 02:00N 72°56' E 024°35'3 2.8 4.5
2018-Apr-21 01:00N 72°56' E 024°45'0 0.0 4.5
2018-Apr-21 00:00N 72°56' E 024°45'2 1.7 4.4
2018-Apr-20 23:00N 72°55' E 024°50'0 0.0 4.4
2018-Apr-20 22:00N 72°55' E 024°50'2 1.7 4.4
2018-Apr-20 21:00N 72°54' E 024°55'2 1.9 4.4
2018-Apr-20 20:00N 72°52' E 024°57'1 1.4 4.4
2018-Apr-20 19:00N 72°53' E 024°59'1 1.3 4.4
2018-Apr-20 18:00N 72°52' E 025°01'2 2.3 4.5
2018-Apr-20 17:00N 72°52' E 024°53'2 2.4 4.5
2018-Apr-20 16:00N 72°52' E 025°01'1 1.4 4.5
2018-Apr-20 15:00N 72°51' E 025°05'1 1.5 4.3
2018-Apr-20 14:00N 72°50' E 025°02'1 1.4 4.5
2018-Apr-20 13:00N 72°51' E 025°04'2 1.8 4.6
2018-Apr-20 12:00N 72°49' E 025°04'1 0.7 4.6
2018-Apr-20 11:00N 72°49' E 025°05'0 0.4 4.6
2018-Apr-20 10:00N 72°49' E 025°07'0 0.2 4.7
2018-Apr-20 09:00N 72°49' E 025°07'0 0.0 4.6
2018-Apr-20 08:00N 72°49' E 025°07'1 0.6 4.6
2018-Apr-20 07:00N 72°49' E 025°08'1 0.8 4.6
2018-Apr-20 06:00N 72°49' E 025°06'1 0.7 4.5
2018-Apr-20 05:00N 72°49' E 025°04'1 1.3 4.5
2018-Apr-20 04:00N 72°47' E 025°02'1 1.4 4.6
2018-Apr-20 03:00N 72°47' E 024°58'0 0.0 4.6
2018-Apr-20 02:00N 72°47' E 024°58'0 0.2 4.6
2018-Apr-20 01:00N 72°47' E 024°57'0 0.0 4.6
2018-Apr-20 00:00N 72°47' E 024°57'1 0.8 4.6
2018-Apr-19 23:00N 72°46' E 024°55'1 0.6 4.6
2018-Apr-19 22:00N 72°46' E 024°55'0 0.4 4.6
2018-Apr-19 21:00N 72°46' E 024°56'2 1.6 4.6
2018-Apr-19 20:00N 72°44' E 024°52'2 1.8 4.6
2018-Apr-19 19:00N 72°46' E 024°51'1 1.2 4.6
2018-Apr-19 18:00N 72°45' E 024°51'1 1.1 4.7
2018-Apr-19 17:00N 72°46' E 024°48'1 0.9 4.7
2018-Apr-19 16:00N 72°45' E 024°46'0 0.0 4.7
2018-Apr-19 15:00N 72°45' E 024°46'2 1.7 4.7
2018-Apr-19 14:00N 72°44' E 024°40'1 0.8 4.7
2018-Apr-19 13:00N 72°44' E 024°38'1 0.5 4.7
2018-Apr-19 12:00N 72°44' E 024°40'1 1.2 4.7
2018-Apr-19 11:00N 72°43' E 024°40'1 0.3 4.6
2018-Apr-19 09:00N 72°43' E 024°38'0 0.2 4.5
2018-Apr-19 07:00N 72°43' E 024°37'1 1.1 4.5
2018-Apr-19 06:00N 72°43' E 024°34'1 0.7 4.5
2018-Apr-19 05:00N 72°43' E 024°33'1 1.4 4.5
2018-Apr-19 04:00N 72°43' E 024°29'1 0.5 4.5
2018-Apr-19 02:00N 72°43' E 024°26'1 0.9 4.6
2018-Apr-19 01:00N 72°44' E 024°29'2 1.8 4.6
2018-Apr-19 00:00N 72°46' E 024°29'0 0.0 4.6
2018-Apr-18 23:00N 72°46' E 024°29'0 0.2 4.7
2018-Apr-18 22:00N 72°46' E 024°30'0 0.2 4.7
2018-Apr-18 21:00N 72°46' E 024°31'0 0.0 4.7
2018-Apr-18 20:00N 72°46' E 024°31'1 0.7 4.6
2018-Apr-18 19:00N 72°46' E 024°28'1 1.2 4.6
2018-Apr-18 18:00N 72°47' E 024°29'0 0.0 4.7
2018-Apr-18 17:00N 72°47' E 024°29'0 0.0 4.7
2018-Apr-18 16:00N 72°47' E 024°29'1 1.1 4.6
2018-Apr-18 15:00N 72°47' E 024°26'1 0.7 4.6
2018-Apr-18 14:00N 72°48' E 024°25'0 0.0 4.6
2018-Apr-18 13:00N 72°48' E 024°25'1 1.2 4.6
2018-Apr-18 12:00N 72°49' E 024°25'1 1.1 4.7
2018-Apr-18 11:00N 72°50' E 024°28'1 0.6 4.7
2018-Apr-18 10:00N 72°49' E 024°28'2 2.2 4.7
2018-Apr-18 09:00N 72°51' E 024°32'1 0.6 4.8
2018-Apr-18 08:00N 72°52' E 024°32'1 1.4 4.7
2018-Apr-18 07:00N 72°52' E 024°37'2 1.9 4.7
2018-Apr-18 06:00N 72°53' E 024°40'1 0.4 4.7
2018-Apr-18 04:00N 72°53' E 024°42'1 0.4 4.6
2018-Apr-18 02:00N 72°54' E 024°44'1 1.5 4.7
2018-Apr-18 01:00N 72°55' E 024°47'1 1.2 4.7
2018-Apr-18 00:00N 72°55' E 024°43'1 1.2 4.6
2018-Apr-17 23:00N 72°56' E 024°43'0 0.0 4.6
2018-Apr-17 22:00N 72°56' E 024°43'1 1.3 4.6
2018-Apr-17 21:00N 72°55' E 024°41'1 0.6 4.6
2018-Apr-17 20:00N 72°56' E 024°41'2 1.6 4.6
2018-Apr-17 19:00N 72°57' E 024°44'2 2.2 4.7
2018-Apr-17 18:00N 72°56' E 024°37'1 1.2 4.7
2018-Apr-17 17:00N 72°57' E 024°34'1 0.7 4.7
2018-Apr-17 16:00N 72°56' E 024°35'2 2.1 4.8
2018-Apr-17 15:00N 72°56' E 024°28'1 1.2 4.7
2018-Apr-17 14:00N 72°56' E 024°32'3 2.5 4.6
2018-Apr-17 13:00N 72°55' E 024°26'1 0.7 4.5
2018-Apr-17 12:00N 72°55' E 024°25'1 0.7 4.5
2018-Apr-17 11:00N 72°55' E 024°22'1 0.7 4.4
2018-Apr-17 10:00N 72°55' E 024°23'1 0.5 4.4
2018-Apr-17 09:00N 72°55' E 024°22'0 0.0 4.3
2018-Apr-17 08:00N 72°55' E 024°22'1 1.3 4.3
2018-Apr-17 07:00N 72°53' E 024°23'2 2.3 4.3
2018-Apr-17 06:00N 72°55' E 024°18'1 1.2 4.3
2018-Apr-17 05:00N 72°56' E 024°18'1 1.4 4.3
2018-Apr-17 04:00N 72°56' E 024°13'   4.3

Dump ship's entire track history